Time;durP1;ratioP1;P1;durP2;ratioP2;P2;SDS_P1;SDS_P2;PMS_P1;PMS_P2;Temp;Humidity;BMP_temperature;BMP_pressure;BME280_temperature;BME280_humidity;BME280_pressure;Samples;Min_cycle;Max_cycle;Signal;HPM_P1;HPM_P2
2023/01/23 00:00:09;;;;;;;11.37;10.27;;;2.20;99.90;;;;;;5085158;28;20199;-88
2023/01/23 00:02:35;;;;;;;12.33;10.10;;;2.20;99.90;;;;;;5085489;28;20202;-88
2023/01/23 00:05:01;;;;;;;12.63;11.43;;;2.10;99.90;;;;;;5085529;28;20180;-87
2023/01/23 00:07:27;;;;;;;12.30;11.03;;;2.00;99.90;;;;;;5086262;28;20217;-88
2023/01/23 00:09:53;;;;;;;13.17;11.63;;;1.90;99.90;;;;;;5086730;28;20188;-86
2023/01/23 00:12:18;;;;;;;11.80;10.60;;;1.90;99.90;;;;;;5086818;28;20183;-87
2023/01/23 00:14:44;;;;;;;12.03;10.80;;;1.90;99.90;;;;;;5086180;28;20211;-88
2023/01/23 00:17:10;;;;;;;12.13;10.90;;;1.90;99.90;;;;;;5085684;28;20204;-88
2023/01/23 00:19:35;;;;;;;11.87;10.67;;;1.90;99.90;;;;;;5086289;28;20197;-86
2023/01/23 00:22:01;;;;;;;11.53;10.43;;;1.90;99.90;;;;;;5086568;28;20364;-89
2023/01/23 00:24:27;;;;;;;11.57;10.33;;;1.80;99.90;;;;;;5087081;28;20187;-88
2023/01/23 00:26:52;;;;;;;11.40;10.30;;;1.80;99.90;;;;;;5086267;28;20667;-88
2023/01/23 00:29:18;;;;;;;11.60;10.43;;;1.80;99.90;;;;;;5087146;28;20202;-86
2023/01/23 00:31:44;;;;;;;12.63;11.10;;;1.80;99.90;;;;;;5092863;28;20196;-91
2023/01/23 00:34:12;;;;;;;12.17;10.97;;;1.90;99.90;;;;;;5070404;28;20269;-86
2023/01/23 00:36:41;;;;;;;13.37;12.00;;;1.90;99.90;;;;;;5087904;28;20227;-86
2023/01/23 00:39:18;;;;;;;12.67;11.37;;;1.90;99.90;;;;;;5088908;28;20196;-87
2023/01/23 00:41:45;;;;;;;12.87;11.57;;;1.80;99.90;;;;;;5086473;28;20239;-86
2023/01/23 00:44:11;;;;;;;12.63;11.33;;;1.90;99.90;;;;;;5086774;28;20210;-85
2023/01/23 00:46:36;;;;;;;14.53;11.67;;;1.90;99.90;;;;;;5070208;28;20176;-85
2023/01/23 00:49:02;;;;;;;12.73;11.43;;;1.80;99.90;;;;;;5086091;28;20196;-88
2023/01/23 00:51:28;;;;;;;13.80;12.33;;;1.80;99.90;;;;;;5085845;28;20179;-87
2023/01/23 00:53:54;;;;;;;13.83;12.43;;;1.80;99.90;;;;;;5085140;28;20179;-86
2023/01/23 00:56:19;;;;;;;13.17;11.80;;;1.80;99.90;;;;;;5085223;28;20206;-89
2023/01/23 00:58:45;;;;;;;12.60;11.30;;;1.70;99.90;;;;;;5085631;28;20215;-86
2023/01/23 01:01:12;;;;;;;14.27;11.80;;;1.80;99.90;;;;;;5085545;28;20190;-89
2023/01/23 01:03:38;;;;;;;13.60;12.20;;;1.70;99.90;;;;;;5065670;28;20180;-88
2023/01/23 01:06:04;;;;;;;13.87;12.40;;;1.70;99.90;;;;;;5083921;28;20179;-86
2023/01/23 01:08:30;;;;;;;14.33;12.83;;;1.70;99.90;;;;;;5083816;28;20192;-86
2023/01/23 01:10:56;;;;;;;12.67;11.20;;;1.70;99.90;;;;;;5065910;28;20241;-88
2023/01/23 01:13:22;;;;;;;15.03;13.30;;;1.70;99.90;;;;;;5082461;28;20183;-87
2023/01/23 01:15:49;;;;;;;13.40;12.00;;;1.70;99.90;;;;;;5083028;28;20171;-88
2023/01/23 01:18:16;;;;;;;13.33;11.73;;;1.70;99.90;;;;;;5082729;28;20222;-87
2023/01/23 01:20:42;;;;;;;13.37;12.07;;;1.80;99.90;;;;;;5084406;28;20294;-86
2023/01/23 01:23:08;;;;;;;12.60;11.33;;;1.80;99.90;;;;;;5084627;28;20175;-87
2023/01/23 01:25:34;;;;;;;12.93;11.53;;;1.90;99.90;;;;;;5095069;28;20247;-93
2023/01/23 01:28:00;;;;;;;13.63;12.23;;;1.80;99.90;;;;;;5097050;28;20219;-92
2023/01/23 01:30:26;;;;;;;13.87;12.23;;;1.80;99.90;;;;;;5097725;28;20196;-91
2023/01/23 01:32:53;;;;;;;12.17;10.83;;;1.80;99.90;;;;;;5095993;28;20179;-93
2023/01/23 01:35:19;;;;;;;12.90;11.57;;;1.80;99.90;;;;;;5084201;28;20191;-87
2023/01/23 01:37:45;;;;;;;12.50;11.20;;;1.70;99.90;;;;;;5078876;28;20215;-87
2023/01/23 01:40:23;;;;;;;12.43;10.70;;;1.70;99.90;;;;;;5077578;28;20199;-88
2023/01/23 01:42:56;;;;;;;11.67;10.37;;;1.70;99.90;;;;;;5077892;28;20191;-87
2023/01/23 01:45:59;;;;;;;14.00;11.93;;;1.70;99.90;;;;;;5080020;28;20180;-88
2023/01/23 01:48:32;;;;;;;12.97;11.03;;;1.70;99.90;;;;;;5083124;28;20210;-88
2023/01/23 01:50:59;;;;;;;11.40;10.23;;;1.80;99.90;;;;;;5083331;28;20166;-88
2023/01/23 01:53:27;;;;;;;13.37;11.43;;;1.80;99.90;;;;;;5080406;28;20182;-87
2023/01/23 01:55:55;;;;;;;11.63;10.07;;;1.80;99.90;;;;;;5079072;28;20240;-89
2023/01/23 01:58:21;;;;;;;11.43;10.23;;;1.80;99.90;;;;;;5078738;28;20267;-88
2023/01/23 02:00:47;;;;;;;12.50;10.70;;;1.70;99.90;;;;;;5060690;28;20187;-87
2023/01/23 02:03:15;;;;;;;11.43;10.23;;;1.70;99.90;;;;;;5079351;28;20176;-88
2023/01/23 02:05:48;;;;;;;11.53;10.33;;;1.70;99.90;;;;;;5079633;28;20176;-85
2023/01/23 02:08:29;;;;;;;11.50;10.30;;;1.70;99.90;;;;;;5079259;28;20195;-90
2023/01/23 02:10:55;;;;;;;11.20;10.03;;;1.70;99.90;;;;;;5078636;28;20397;-87
2023/01/23 02:13:29;;;;;;;12.07;10.77;;;1.70;99.90;;;;;;5078831;28;20172;-87
2023/01/23 02:15:56;;;;;;;11.23;10.07;;;1.60;99.90;;;;;;5072606;28;20169;-88
2023/01/23 02:18:23;;;;;;;12.63;10.03;;;1.50;99.90;;;;;;5076771;28;20290;-90
2023/01/23 02:20:52;;;;;;;13.13;10.90;;;1.60;99.90;;;;;;5078845;28;20532;-89
2023/01/23 02:23:44;;;;;;;11.17;10.07;;;1.50;99.90;;;;;;5078819;28;20168;-87
2023/01/23 02:26:16;;;;;;;12.30;10.13;;;1.50;99.90;;;;;;5079576;28;20225;-88
2023/01/23 02:28:47;;;;;;;12.10;9.77;;;1.50;99.90;;;;;;5069467;28;20216;-87
2023/01/23 02:31:14;;;;;;;11.77;10.07;;;1.50;99.90;;;;;;5073601;28;20241;-88
2023/01/23 02:33:39;;;;;;;12.83;10.87;;;1.50;99.90;;;;;;5080861;28;20167;-86
2023/01/23 02:36:07;;;;;;;12.30;10.13;;;1.40;99.90;;;;;;5079813;28;20195;-89
2023/01/23 02:38:44;;;;;;;11.57;9.60;;;1.40;99.90;;;;;;5068080;28;20204;-86
2023/01/23 02:41:12;;;;;;;10.10;9.03;;;1.40;99.90;;;;;;5068119;28;20680;-87
2023/01/23 02:43:38;;;;;;;11.83;9.40;;;1.50;99.90;;;;;;5081487;28;20179;-86
2023/01/23 02:46:06;;;;;;;11.30;10.13;;;1.50;99.90;;;;;;5081719;28;20187;-86
2023/01/23 02:48:33;;;;;;;11.57;9.83;;;1.60;99.90;;;;;;5063611;28;20200;-87
2023/01/23 02:50:59;;;;;;;10.40;8.80;;;1.70;99.90;;;;;;5065215;28;20670;-87
2023/01/23 02:53:28;;;;;;;9.37;8.47;;;1.80;99.90;;;;;;5085919;28;20179;-86
2023/01/23 02:55:55;;;;;;;12.10;10.80;;;1.80;99.90;;;;;;5085925;28;20282;-88
2023/01/23 03:01:05;;;;;;;10.57;9.40;;;1.90;99.90;;;;;;5088098;28;20182;-87
2023/01/23 03:03:30;;;;;;;10.90;9.80;;;1.90;99.90;;;;;;5084090;28;20176;-87
2023/01/23 03:05:58;;;;;;;11.30;10.20;;;2.00;99.90;;;;;;5082694;28;20182;-90
2023/01/23 03:08:32;;;;;;;10.17;9.17;;;1.90;99.90;;;;;;5081853;28;20199;-88
2023/01/23 03:10:58;;;;;;;12.20;10.07;;;1.90;99.90;;;;;;5082444;28;20164;-86
2023/01/23 03:13:23;;;;;;;12.13;10.20;;;1.80;99.90;;;;;;5081929;28;20172;-88
2023/01/23 03:15:52;;;;;;;11.60;9.80;;;1.70;99.90;;;;;;5081623;28;20447;-87
2023/01/23 03:18:18;;;;;;;10.87;9.57;;;1.70;99.90;;;;;;5081748;28;20207;-86
2023/01/23 03:20:44;;;;;;;11.17;10.07;;;1.70;99.90;;;;;;5082413;28;20168;-86
2023/01/23 03:23:10;;;;;;;11.70;10.50;;;1.60;99.90;;;;;;5081861;28;20237;-86
2023/01/23 03:25:35;;;;;;;11.33;9.83;;;1.70;99.90;;;;;;5082004;28;20171;-89
2023/01/23 03:28:01;;;;;;;11.90;9.93;;;1.60;99.90;;;;;;5081987;28;20300;-87
2023/01/23 03:30:27;;;;;;;10.20;9.03;;;1.60;99.90;;;;;;5082094;28;20183;-87
2023/01/23 03:32:52;;;;;;;11.70;10.40;;;1.70;99.90;;;;;;5082098;28;20199;-86
2023/01/23 03:35:19;;;;;;;11.90;9.97;;;1.70;99.90;;;;;;5074999;28;20183;-89
2023/01/23 03:37:48;;;;;;;13.13;10.00;;;1.60;99.90;;;;;;5065334;28;20302;-87
2023/01/23 03:43:07;;;;;;;12.43;10.37;;;1.60;99.90;;;;;;5062656;28;20168;-88
2023/01/23 03:45:33;;;;;;;12.17;9.80;;;1.60;99.90;;;;;;5062369;28;20176;-88
2023/01/23 03:47:58;;;;;;;12.77;10.80;;;1.60;99.90;;;;;;5075700;28;20286;-90
2023/01/23 03:50:24;;;;;;;11.43;10.00;;;1.70;99.90;;;;;;5064058;28;20204;-91
2023/01/23 03:52:50;;;;;;;12.37;9.33;;;1.70;99.90;;;;;;5081553;28;20267;-88
2023/01/23 03:55:15;;;;;;;11.50;10.30;;;1.80;99.90;;;;;;5081779;28;20233;-87
2023/01/23 03:57:41;;;;;;;10.93;9.80;;;1.80;99.90;;;;;;5082184;28;20847;-88
2023/01/23 04:00:07;;;;;;;10.93;9.70;;;1.80;99.90;;;;;;5083677;28;20180;-89
2023/01/23 04:02:33;;;;;;;12.13;10.10;;;1.70;99.90;;;;;;5081209;28;20176;-91
2023/01/23 04:04:58;;;;;;;12.27;9.87;;;1.70;99.90;;;;;;5082059;28;20218;-88
2023/01/23 04:07:24;;;;;;;12.47;9.93;;;1.70;99.90;;;;;;5083234;28;20213;-89
2023/01/23 04:09:50;;;;;;;11.63;10.43;;;1.80;99.90;;;;;;5085029;28;20183;-88
2023/01/23 04:12:16;;;;;;;12.20;10.13;;;1.80;99.90;;;;;;5083669;28;20176;-88
2023/01/23 04:14:41;;;;;;;10.40;9.30;;;1.70;99.90;;;;;;5081238;28;20172;-87
2023/01/23 04:17:07;;;;;;;10.73;9.63;;;1.80;99.90;;;;;;5076410;28;20704;-87
2023/01/23 04:19:34;;;;;;;11.37;10.13;;;1.80;99.90;;;;;;5081193;28;20175;-89
2023/01/23 04:22:00;;;;;;;11.40;10.20;;;1.80;99.90;;;;;;5082277;28;20172;-87
2023/01/23 04:24:26;;;;;;;13.00;9.93;;;1.80;99.90;;;;;;5082670;28;20215;-86
2023/01/23 04:26:52;;;;;;;12.00;9.60;;;1.70;99.90;;;;;;5065542;28;20188;-86
2023/01/23 04:29:18;;;;;;;11.00;9.70;;;1.70;99.90;;;;;;5073176;28;20195;-87
2023/01/23 04:31:44;;;;;;;11.43;9.73;;;1.70;99.90;;;;;;5050733;28;20190;-86
2023/01/23 04:34:09;;;;;;;12.27;9.93;;;1.70;99.90;;;;;;5082451;28;20700;-87
2023/01/23 04:36:35;;;;;;;11.77;9.37;;;1.70;99.90;;;;;;5081571;28;20268;-86
2023/01/23 04:39:02;;;;;;;10.13;9.13;;;1.60;99.90;;;;;;5081180;28;20215;-87
2023/01/23 04:41:29;;;;;;;10.70;9.20;;;1.60;99.90;;;;;;5081464;28;20206;-86
2023/01/23 04:43:55;;;;;;;10.93;9.70;;;1.60;99.90;;;;;;5083230;28;20317;-90
2023/01/23 04:46:21;;;;;;;10.90;9.80;;;1.60;99.90;;;;;;5083152;28;20213;-89
2023/01/23 04:48:46;;;;;;;11.97;10.37;;;1.60;99.90;;;;;;5082442;28;20211;-87
2023/01/23 04:51:12;;;;;;;11.73;10.30;;;1.70;99.90;;;;;;5082682;28;20210;-88
2023/01/23 04:53:38;;;;;;;10.13;9.13;;;1.60;99.90;;;;;;5083547;28;20195;-87
2023/01/23 04:56:04;;;;;;;10.57;9.50;;;1.60;99.90;;;;;;5084609;28;20191;-88
2023/01/23 04:58:30;;;;;;;11.20;9.83;;;1.60;99.90;;;;;;5083771;28;20246;-88
2023/01/23 05:01:04;;;;;;;12.33;10.23;;;1.70;99.90;;;;;;5084565;28;20183;-91
2023/01/23 05:03:31;;;;;;;12.07;10.07;;;1.70;99.90;;;;;;5073289;28;20203;-92
2023/01/23 05:05:57;;;;;;;13.17;9.67;;;1.60;99.90;;;;;;5067623;28;20172;-87
2023/01/23 05:08:22;;;;;;;12.00;9.60;;;1.60;99.90;;;;;;5063563;28;20239;-89
2023/01/23 05:10:48;;;;;;;11.53;10.33;;;1.60;99.90;;;;;;5061843;28;20207;-87
2023/01/23 05:13:14;;;;;;;11.47;10.00;;;1.60;99.90;;;;;;5051631;28;20196;-90
2023/01/23 05:15:39;;;;;;;12.50;10.93;;;1.60;99.90;;;;;;5083280;28;20221;-90
2023/01/23 05:18:05;;;;;;;11.93;10.57;;;1.60;99.90;;;;;;5087187;28;20222;-87
2023/01/23 05:20:46;;;;;;;12.80;11.03;;;1.50;99.90;;;;;;5086221;28;20175;-89
2023/01/23 05:23:30;;;;;;;12.07;10.63;;;1.60;99.90;;;;;;5064242;28;20191;-87
2023/01/23 05:26:34;;;;;;;12.13;9.47;;;1.60;99.90;;;;;;5078351;28;20198;-89
2023/01/23 05:29:00;;;;;;;13.83;10.37;;;1.50;99.90;;;;;;5077958;28;20211;-87
2023/01/23 05:31:26;;;;;;;11.63;9.40;;;1.50;99.90;;;;;;5083855;28;20334;-86
2023/01/23 05:33:52;;;;;;;12.70;9.33;;;1.50;99.90;;;;;;5081541;28;20183;-87
2023/01/23 05:36:18;;;;;;;9.80;8.73;;;1.50;99.90;;;;;;5080651;28;20236;-87
2023/01/23 05:38:43;;;;;;;10.83;9.67;;;1.50;99.90;;;;;;5063054;28;20215;-87
2023/01/23 05:41:09;;;;;;;10.83;8.90;;;1.60;99.90;;;;;;5081191;28;20214;-89
2023/01/23 05:43:35;;;;;;;11.20;9.60;;;1.60;99.90;;;;;;5062797;28;20179;-87
2023/01/23 05:46:01;;;;;;;10.17;8.90;;;1.60;99.90;;;;;;5062543;28;20262;-86
2023/01/23 05:48:27;;;;;;;12.07;9.37;;;1.60;99.90;;;;;;5081206;28;20228;-88
2023/01/23 05:50:53;;;;;;;10.77;9.60;;;1.60;99.90;;;;;;5062771;28;20843;-88
2023/01/23 05:53:19;;;;;;;11.07;8.90;;;1.60;99.90;;;;;;5062534;28;20183;-89
2023/01/23 05:55:44;;;;;;;12.10;10.20;;;1.60;99.90;;;;;;5065873;28;20250;-88
2023/01/23 05:58:10;;;;;;;14.83;11.43;;;1.60;99.90;;;;;;5068606;28;20219;-86
2023/01/23 06:00:36;;;;;;;12.13;10.03;;;1.50;99.90;;;;;;5065845;28;20183;-87
2023/01/23 06:03:02;;;;;;;23.37;19.87;;;1.60;99.90;;;;;;5085526;28;20183;-88
2023/01/23 06:05:28;;;;;;;17.87;15.97;;;1.60;99.90;;;;;;5086037;28;20262;-90
2023/01/23 06:07:54;;;;;;;16.30;13.63;;;1.50;99.90;;;;;;5067519;28;20204;-88
2023/01/23 06:10:19;;;;;;;10.63;9.63;;;1.50;99.90;;;;;;5085306;28;20200;-89
2023/01/23 06:12:45;;;;;;;11.50;10.03;;;1.40;99.90;;;;;;5066576;28;20220;-86
2023/01/23 06:15:11;;;;;;;11.47;9.70;;;1.50;99.90;;;;;;5085785;28;20176;-88
2023/01/23 06:17:37;;;;;;;10.57;9.47;;;1.50;99.90;;;;;;5085898;28;20215;-89
2023/01/23 06:20:03;;;;;;;11.17;9.17;;;1.60;99.90;;;;;;5068082;28;20176;-87
2023/01/23 06:22:29;;;;;;;11.30;10.10;;;1.50;99.90;;;;;;5083487;28;20179;-90
2023/01/23 06:24:55;;;;;;;12.17;9.77;;;1.50;99.90;;;;;;5080809;28;20214;-88
2023/01/23 06:27:20;;;;;;;11.03;9.53;;;1.50;99.90;;;;;;5087543;28;20234;-88
2023/01/23 06:29:46;;;;;;;11.40;10.10;;;1.50;99.90;;;;;;5073430;28;20212;-84
2023/01/23 06:32:12;;;;;;;16.23;10.83;;;1.50;99.90;;;;;;5072800;28;20215;-86
2023/01/23 06:34:38;;;;;;;10.67;9.50;;;1.50;99.90;;;;;;5072837;28;20218;-89
2023/01/23 06:37:04;;;;;;;10.87;9.77;;;1.40;99.90;;;;;;5089112;28;20207;-88
2023/01/23 06:39:29;;;;;;;10.40;9.23;;;1.40;99.90;;;;;;5088591;28;20172;-86
2023/01/23 06:41:56;;;;;;;11.40;8.97;;;1.50;99.90;;;;;;5088393;28;20172;-87
2023/01/23 06:44:22;;;;;;;11.47;10.40;;;1.40;99.90;;;;;;5071751;28;20201;-87
2023/01/23 06:46:48;;;;;;;12.33;10.60;;;1.40;99.90;;;;;;5088253;28;20168;-87
2023/01/23 06:49:14;;;;;;;13.70;10.60;;;1.40;99.90;;;;;;5070275;28;20415;-87
2023/01/23 06:51:40;;;;;;;10.93;9.63;;;1.30;99.90;;;;;;5089313;28;20240;-87
2023/01/23 06:54:05;;;;;;;11.90;9.90;;;1.40;99.90;;;;;;5089170;28;20180;-86
2023/01/23 06:56:31;;;;;;;9.70;8.53;;;1.30;99.90;;;;;;5088997;28;20176;-89
2023/01/23 06:58:57;;;;;;;10.27;8.70;;;1.30;99.90;;;;;;5088764;28;20215;-89
2023/01/23 07:01:23;;;;;;;11.50;9.53;;;1.30;99.90;;;;;;5089702;28;20187;-89
2023/01/23 07:03:49;;;;;;;11.27;9.83;;;1.30;99.90;;;;;;5089366;28;20176;-90
2023/01/23 07:06:14;;;;;;;11.77;10.57;;;1.40;99.90;;;;;;5069285;28;20253;-88
2023/01/23 07:08:41;;;;;;;11.40;9.90;;;1.40;99.90;;;;;;5070422;28;20252;-87
2023/01/23 07:11:07;;;;;;;10.13;9.13;;;1.40;99.90;;;;;;5070617;28;20649;-88
2023/01/23 07:13:33;;;;;;;11.27;9.50;;;1.40;99.90;;;;;;5087845;28;20171;-92
2023/01/23 07:15:59;;;;;;;11.87;10.40;;;1.40;99.90;;;;;;5070087;28;20218;-90
2023/01/23 07:18:27;;;;;;;11.67;10.03;;;1.40;99.90;;;;;;5075102;28;20491;-89
2023/01/23 07:20:53;;;;;;;11.83;10.03;;;1.40;99.90;;;;;;5081928;28;20182;-87
2023/01/23 07:23:20;;;;;;;13.70;10.33;;;1.40;99.90;;;;;;5089891;28;20172;-88
2023/01/23 07:25:46;;;;;;;11.33;8.83;;;1.50;99.90;;;;;;5088837;28;20190;-91
2023/01/23 07:28:12;;;;;;;11.10;9.03;;;1.40;99.90;;;;;;5072192;28;20219;-87
2023/01/23 07:30:37;;;;;;;10.73;9.47;;;1.40;99.90;;;;;;5072874;28;20217;-86
2023/01/23 07:33:04;;;;;;;11.43;9.90;;;1.50;99.90;;;;;;5090738;28;20206;-86
2023/01/23 07:35:30;;;;;;;11.27;9.83;;;1.50;99.90;;;;;;5089593;28;20198;-87
2023/01/23 07:37:56;;;;;;;12.83;10.40;;;1.50;99.90;;;;;;5089066;28;20211;-88
2023/01/23 07:40:21;;;;;;;16.83;12.27;;;1.50;99.90;;;;;;5089381;28;20179;-85
2023/01/23 07:42:47;;;;;;;12.47;11.17;;;1.50;99.90;;;;;;5091247;28;20244;-86
2023/01/23 07:45:13;;;;;;;21.03;18.50;;;1.50;99.90;;;;;;5078315;28;20164;-87
2023/01/23 07:47:39;;;;;;;13.43;11.60;;;1.60;99.90;;;;;;5082137;28;20219;-87
2023/01/23 07:50:11;;;;;;;11.27;9.67;;;1.50;99.90;;;;;;5082025;28;20180;-90
2023/01/23 07:52:37;;;;;;;10.27;8.80;;;1.50;99.90;;;;;;5075776;28;20189;-89
2023/01/23 07:55:03;;;;;;;10.17;8.60;;;1.40;99.90;;;;;;5098445;28;20236;-90
2023/01/23 07:57:29;;;;;;;10.70;9.37;;;1.40;99.90;;;;;;5066266;28;20215;-87
2023/01/23 07:59:55;;;;;;;10.93;9.57;;;1.30;99.90;;;;;;5081934;28;20329;-86
2023/01/23 08:02:21;;;;;;;12.93;9.93;;;1.40;99.90;;;;;;5083039;28;20182;-87
2023/01/23 08:04:46;;;;;;;11.13;9.23;;;1.40;99.90;;;;;;5080913;28;20179;-89
2023/01/23 08:07:12;;;;;;;13.77;12.00;;;1.40;99.90;;;;;;5081392;28;20258;-87
2023/01/23 08:09:39;;;;;;;12.90;10.67;;;1.30;99.90;;;;;;5066075;28;20716;-89
2023/01/23 08:12:05;;;;;;;12.73;10.20;;;1.40;99.90;;;;;;5081603;28;20725;-88
2023/01/23 08:14:30;;;;;;;14.80;12.23;;;1.40;99.90;;;;;;5065288;28;20191;-87
2023/01/23 08:16:56;;;;;;;13.00;10.77;;;1.40;99.90;;;;;;5064246;28;20191;-88
2023/01/23 08:19:24;;;;;;;12.37;10.13;;;1.50;99.90;;;;;;5065864;28;20307;-85
2023/01/23 08:21:50;;;;;;;11.77;10.47;;;1.50;99.90;;;;;;5084524;28;20194;-87
2023/01/23 08:24:15;;;;;;;12.67;11.30;;;1.50;99.90;;;;;;5065757;28;20184;-86
2023/01/23 08:26:41;;;;;;;15.50;11.50;;;1.50;99.90;;;;;;5083777;28;20210;-85
2023/01/23 08:29:07;;;;;;;13.23;10.07;;;1.50;99.90;;;;;;5084677;28;20219;-87
2023/01/23 08:31:33;;;;;;;11.70;9.83;;;1.60;99.90;;;;;;5066511;28;20195;-86
2023/01/23 08:33:59;;;;;;;13.10;10.63;;;1.60;99.90;;;;;;5083702;28;20203;-86
2023/01/23 08:36:25;;;;;;;12.53;10.77;;;1.70;99.90;;;;;;5084215;28;20176;-88
2023/01/23 08:38:51;;;;;;;11.70;9.40;;;1.60;99.90;;;;;;5084304;28;20207;-85
2023/01/23 08:41:17;;;;;;;12.87;10.03;;;1.70;99.90;;;;;;5086721;28;20265;-88
2023/01/23 08:43:43;;;;;;;13.83;10.23;;;1.60;99.90;;;;;;5067969;28;20231;-86
2023/01/23 08:46:09;;;;;;;13.13;10.27;;;1.70;99.90;;;;;;5086671;28;20164;-86
2023/01/23 08:48:36;;;;;;;13.97;10.00;;;1.70;99.90;;;;;;5085912;28;20190;-88
2023/01/23 08:51:12;;;;;;;12.77;10.60;;;1.70;99.90;;;;;;5087113;28;20183;-88
2023/01/23 08:53:38;;;;;;;12.33;10.77;;;1.80;99.90;;;;;;5086721;28;20179;-88
2023/01/23 08:56:09;;;;;;;11.27;10.03;;;1.80;99.90;;;;;;5085530;28;20195;-88
2023/01/23 08:58:35;;;;;;;11.67;9.77;;;1.90;99.90;;;;;;5086953;28;20207;-88
2023/01/23 09:01:00;;;;;;;11.90;9.83;;;1.90;99.90;;;;;;5083448;28;20175;-88
2023/01/23 09:03:27;;;;;;;11.20;9.90;;;1.90;99.90;;;;;;5063315;28;20190;-86
2023/01/23 09:05:53;;;;;;;11.93;10.30;;;1.90;99.90;;;;;;5065505;28;20184;-87
2023/01/23 09:08:19;;;;;;;13.03;10.93;;;1.90;99.90;;;;;;5064015;28;20206;-89
2023/01/23 09:10:44;;;;;;;13.00;10.83;;;1.90;99.90;;;;;;5052811;28;20577;-86
2023/01/23 09:13:11;;;;;;;12.10;10.47;;;1.90;99.90;;;;;;5061593;28;20191;-85
2023/01/23 09:15:38;;;;;;;11.80;10.23;;;2.00;99.90;;;;;;5083374;28;20229;-88
2023/01/23 09:18:04;;;;;;;12.97;10.03;;;2.00;99.90;;;;;;5064256;28;20235;-85
2023/01/23 09:20:29;;;;;;;11.43;9.90;;;2.00;99.90;;;;;;5084570;28;20176;-88
2023/01/23 09:22:55;;;;;;;13.10;10.30;;;2.10;99.90;;;;;;5084048;28;20175;-86
2023/01/23 09:25:21;;;;;;;14.73;10.67;;;2.10;99.90;;;;;;5084033;28;20168;-88
2023/01/23 09:27:47;;;;;;;11.90;10.10;;;2.10;99.90;;;;;;5080778;28;20217;-86
2023/01/23 09:30:13;;;;;;;14.40;12.03;;;2.20;99.90;;;;;;5081037;28;20225;-87
2023/01/23 09:32:39;;;;;;;13.60;11.60;;;2.20;99.90;;;;;;5067620;28;20242;-87
2023/01/23 09:35:05;;;;;;;16.57;13.00;;;2.20;99.90;;;;;;5084382;28;20180;-89
2023/01/23 09:40:18;;;;;;;15.30;12.33;;;2.30;99.90;;;;;;5083596;28;20174;-91
2023/01/23 09:42:45;;;;;;;13.30;11.27;;;2.30;99.90;;;;;;5084406;28;20217;-88
2023/01/23 09:45:19;;;;;;;13.30;11.00;;;2.30;99.90;;;;;;5066960;28;20190;-87
2023/01/23 09:47:53;;;;;;;15.07;11.20;;;2.20;99.90;;;;;;5085026;28;20660;-89
2023/01/23 09:50:32;;;;;;;13.40;11.57;;;2.10;99.90;;;;;;5067361;28;20211;-89
2023/01/23 09:53:20;;;;;;;14.87;10.97;;;2.10;99.90;;;;;;5067394;28;20199;-88
2023/01/23 09:55:56;;;;;;;16.17;12.53;;;2.20;99.90;;;;;;5064762;28;20188;-90
2023/01/23 09:58:54;;;;;;;15.20;11.40;;;2.10;99.90;;;;;;5067108;28;20275;-87
2023/01/23 10:01:29;;;;;;;18.23;12.23;;;2.10;99.90;;;;;;4998381;28;20191;-90
2023/01/23 10:03:57;;;;;;;14.70;12.07;;;2.10;99.90;;;;;;5072089;28;20171;-88
2023/01/23 10:06:26;;;;;;;17.13;12.03;;;2.20;99.90;;;;;;5084713;28;20684;-88
2023/01/23 10:09:20;;;;;;;15.73;12.17;;;2.20;99.90;;;;;;5090136;28;20290;-88
2023/01/23 10:12:18;;;;;;;15.63;12.23;;;2.30;99.90;;;;;;5092152;28;20179;-88
2023/01/23 10:14:53;;;;;;;15.23;12.33;;;2.30;99.90;;;;;;5044045;28;20263;-88
2023/01/23 10:17:25;;;;;;;15.50;12.03;;;2.30;99.90;;;;;;5070591;28;20229;-87
2023/01/23 10:20:10;;;;;;;14.17;11.33;;;2.30;99.90;;;;;;5089757;28;20322;-87
2023/01/23 10:22:51;;;;;;;16.63;12.10;;;2.30;99.90;;;;;;5071975;28;20172;-88
2023/01/23 10:25:24;;;;;;;15.80;12.13;;;2.30;99.90;;;;;;5089402;28;20276;-87
2023/01/23 10:27:52;;;;;;;14.73;12.07;;;2.30;99.90;;;;;;5089226;28;20295;-89
2023/01/23 10:30:32;;;;;;;15.17;11.83;;;2.40;99.90;;;;;;5089702;28;20171;-89
2023/01/23 10:33:08;;;;;;;13.83;11.53;;;2.40;99.90;;;;;;5088607;28;20221;-88
2023/01/23 10:35:50;;;;;;;26.10;23.50;;;2.40;99.90;;;;;;5071813;28;20183;-90
2023/01/23 10:38:41;;;;;;;15.30;10.97;;;2.40;99.90;;;;;;5088895;28;20215;-86
2023/01/23 10:41:13;;;;;;;13.07;10.10;;;2.50;99.90;;;;;;5072387;28;20168;-89
2023/01/23 10:43:58;;;;;;;15.37;11.67;;;2.40;99.90;;;;;;5089874;28;20305;-87
2023/01/23 10:46:34;;;;;;;13.80;10.93;;;2.60;99.90;;;;;;5089358;28;20523;-88
2023/01/23 10:49:09;;;;;;;14.47;10.73;;;2.50;99.90;;;;;;5091030;28;20203;-89
2023/01/23 10:51:37;;;;;;;12.33;10.40;;;2.60;99.90;;;;;;5072737;28;20199;-89
2023/01/23 10:54:17;;;;;;;13.80;9.87;;;2.70;99.90;;;;;;5088219;28;20403;-90
2023/01/23 10:56:58;;;;;;;13.37;10.17;;;2.70;99.90;;;;;;5088839;28;20180;-91
2023/01/23 11:00:03;;;;;;;13.13;9.83;;;2.70;99.00;;;;;;5070947;28;20198;-87
2023/01/23 11:02:32;;;;;;;11.97;9.07;;;2.80;96.20;;;;;;5069980;28;20172;-87
2023/01/23 11:04:59;;;;;;;11.93;9.90;;;2.80;97.50;;;;;;5065427;28;20190;-87
2023/01/23 11:07:27;;;;;;;12.70;9.67;;;2.70;94.70;;;;;;5091627;28;20192;-90
2023/01/23 11:09:59;;;;;;;11.23;9.43;;;2.80;95.30;;;;;;5089790;28;20192;-86
2023/01/23 11:12:30;;;;;;;10.80;9.53;;;2.70;92.90;;;;;;5071656;28;20168;-87
2023/01/23 11:15:39;;;;;;;11.63;9.50;;;2.60;92.20;;;;;;5072956;28;20191;-86
2023/01/23 11:18:27;;;;;;;11.40;9.13;;;2.70;93.60;;;;;;5070089;28;20253;-87
2023/01/23 11:20:56;;;;;;;11.00;9.80;;;2.60;94.20;;;;;;5087804;28;20180;-88
2023/01/23 11:23:23;;;;;;;12.73;9.50;;;2.70;94.70;;;;;;5089589;28;20248;-87
2023/01/23 11:25:51;;;;;;;11.83;9.07;;;2.70;93.40;;;;;;5068455;28;20172;-87
2023/01/23 11:28:33;;;;;;;13.17;10.20;;;2.60;93.10;;;;;;5086898;28;20280;-88
2023/01/23 11:31:08;;;;;;;11.47;9.27;;;2.70;93.70;;;;;;5069936;28;20175;-88
2023/01/23 11:33:43;;;;;;;12.73;10.97;;;2.80;93.10;;;;;;5067483;28;20211;-90
2023/01/23 11:36:34;;;;;;;11.67;10.00;;;2.80;94.50;;;;;;5086963;28;20179;-88
2023/01/23 11:39:23;;;;;;;10.93;9.10;;;3.00;92.90;;;;;;5087659;28;20207;-88
2023/01/23 11:41:50;;;;;;;11.00;9.40;;;3.10;90.80;;;;;;5062207;28;20188;-87
2023/01/23 11:44:18;;;;;;;14.40;12.73;;;3.00;91.20;;;;;;5087739;28;20203;-89
2023/01/23 11:47:16;;;;;;;10.90;8.90;;;3.10;91.10;;;;;;5069004;28;20182;-87
2023/01/23 11:50:00;;;;;;;11.90;8.23;;;3.10;90.50;;;;;;5041788;28;20723;-89
2023/01/23 11:52:47;;;;;;;11.40;9.17;;;3.20;90.10;;;;;;5086758;28;20225;-92
2023/01/23 11:55:44;;;;;;;13.53;9.53;;;3.30;89.90;;;;;;5068054;28;20711;-88
2023/01/23 11:58:31;;;;;;;14.50;10.80;;;3.30;88.90;;;;;;5086420;28;20216;-93
2023/01/23 12:01:12;;;;;;;11.30;9.23;;;3.60;85.70;;;;;;5079823;28;20187;-88
2023/01/23 12:03:44;;;;;;;14.20;11.50;;;3.90;86.50;;;;;;5048790;28;20176;-90
2023/01/23 12:06:24;;;;;;;11.87;9.33;;;4.20;83.90;;;;;;5059341;28;20179;-88
2023/01/23 12:09:08;;;;;;;13.63;12.03;;;4.20;82.00;;;;;;5091496;28;20326;-87
2023/01/23 12:12:04;;;;;;;12.83;9.63;;;4.20;82.60;;;;;;5077143;28;20193;-89
2023/01/23 12:14:45;;;;;;;10.77;8.97;;;4.00;82.80;;;;;;5079674;28;20164;-88
2023/01/23 12:17:23;;;;;;;17.53;13.43;;;3.90;84.10;;;;;;5097209;28;20191;-90
2023/01/23 12:20:18;;;;;;;15.73;12.57;;;3.80;84.10;;;;;;5057410;28;20177;-88
2023/01/23 12:22:59;;;;;;;16.30;12.17;;;3.80;84.80;;;;;;5045530;28;20234;-87
2023/01/23 12:25:38;;;;;;;9.47;8.23;;;3.90;85.20;;;;;;5045251;28;20175;-89
2023/01/23 12:28:33;;;;;;;10.13;8.30;;;3.80;84.60;;;;;;5064385;28;20291;-88
2023/01/23 12:31:18;;;;;;;11.80;9.47;;;3.80;84.60;;;;;;5065193;28;20176;-88
2023/01/23 12:34:03;;;;;;;11.10;9.90;;;3.70;84.60;;;;;;5059860;28;20215;-89
2023/01/23 12:36:31;;;;;;;11.57;9.17;;;3.70;84.90;;;;;;5084446;28;20189;-90
2023/01/23 12:39:21;;;;;;;15.83;12.40;;;3.70;85.40;;;;;;5066239;28;20226;-88
2023/01/23 12:42:07;;;;;;;12.67;10.03;;;3.70;85.10;;;;;;5082303;28;20190;-88
2023/01/23 12:44:50;;;;;;;12.13;10.93;;;3.70;86.60;;;;;;5082591;28;20210;-89
2023/01/23 12:47:24;;;;;;;9.73;8.47;;;3.70;86.50;;;;;;5083147;28;20188;-89
2023/01/23 12:49:57;;;;;;;10.00;8.97;;;3.60;84.60;;;;;;5082708;28;20190;-87
2023/01/23 12:52:32;;;;;;;11.57;9.57;;;3.60;86.70;;;;;;5082758;28;20163;-88
2023/01/23 12:55:13;;;;;;;9.93;8.60;;;3.70;85.70;;;;;;5075824;28;20188;-89
2023/01/23 12:57:40;;;;;;;11.57;8.77;;;3.70;84.20;;;;;;5044694;28;20204;-88
2023/01/23 13:00:24;;;;;;;10.30;8.87;;;3.70;82.90;;;;;;5079794;28;20191;-88
2023/01/23 13:02:59;;;;;;;10.30;8.40;;;3.90;83.20;;;;;;5059235;28;20270;-92